Česky Dansk Deutsch English Español Suomi Français Magyar Italiano Nederlands norsk Polski Português svenska Türkçe

 

Het Weer

Luqa (Malta)

22:45, 21 augustus 2016 (GMT)

NWNNE
WE
SWSSE
Home            
Luqa Cozzo Spadaro Comiso As Usaf Gela Lampedusa Catania / Sigonella Catania / Fontanarossa Enna Pantelleria Reggio Calabria Palermo Boccadifalco Messina Palermo / Punta Raisi Trapani / Birgi Kelibia Habib Bourguiba Ustica Monastir-Skanes Sfax El-Maou Lamezia Terme Tripoli Inter-National Airport Tunis-Carthage Kairouan

Om een weerknop op uw website of weblog te plaatsen, copieer onderstaande code en plak die in uw pagina. In het eerste vakje staat HTML-code, in het tweede vakje UBB-code.


Add to Google

Details

Wind speed:2 bf, 6 kn, 3.1 m/s, 6.9 miles/h, 11.1 km/h
Wind direction:WNW, 290°
Visibility:Greater than 10000 m, 10 km, 32800 ft, 6.2 miles
Clouds:CAVOC
Temperature:25°C, 77°F
Gefühlte Temperatur:26°C, 79°F
Dew-point:21°C, 70°F
Atmospheric pressure:1016 hPa, 762.1 mmHg, 30.00 inHg, 1.003 atm
Relative humidity:78.5 %
METAR:LMML 212245Z AUTO 29006KT CAVOK 25/21 Q1016

Snelkoppelingen

Actuele weersinformatie van de hele wereld. Voeg locaties toe met het plus (+) symbool. Deze snelkoppelingen kunnen worden toegevoegd aan Google.

Lid van de Technetium groep

website free tracking
StatCounter NetStat W3C Validator

19-05-2022 06:20:16
astro.technetium.be money.technetium.be phote.technetium.be tafeltennistafel.technetium.be www.ligfiets.net